createdAt,value
2024-03-06T13:00:13.526Z,16.82
2024-03-06T13:01:42.152Z,16.82
2024-03-06T13:12:28.354Z,17.01
2024-03-06T13:31:05.307Z,16.96
2024-03-06T13:33:03.642Z,16.91
2024-03-06T13:35:31.036Z,16.94
2024-03-06T13:37:29.019Z,16.98
2024-03-06T13:41:52.488Z,17.04
2024-03-06T13:43:51.104Z,17.15
2024-03-06T13:45:19.528Z,17.19
2024-03-06T13:47:47.291Z,17.28
2024-03-06T13:54:06.795Z,17.25
2024-03-06T13:57:32.235Z,17.38
2024-03-06T14:01:26.869Z,17.46
2024-03-06T14:02:55.814Z,17.49
2024-03-06T14:07:48.773Z,17.56
2024-03-06T14:10:45.573Z,17.51
2024-03-06T14:19:59.573Z,17.79
2024-03-06T14:21:59.464Z,17.86
2024-03-06T14:23:26.687Z,17.72
2024-03-06T14:24:55.627Z,17.58
2024-03-06T14:26:53.970Z,17.54
2024-03-06T14:32:44.965Z,17.38
2024-03-06T14:34:43.621Z,17.30
2024-03-06T14:38:38.689Z,17.33
2024-03-06T14:41:05.212Z,17.21
2024-03-06T14:51:46.220Z,17.12
2024-03-06T14:55:40.446Z,17.22
2024-03-06T15:01:02.475Z,17.07
2024-03-06T15:03:29.730Z,17.15
2024-03-06T15:10:47.314Z,17.25
2024-03-06T15:14:57.889Z,17.37
2024-03-06T15:17:50.476Z,17.37
2024-03-06T15:20:08.460Z,17.41
2024-03-06T15:23:34.921Z,17.38
2024-03-06T15:25:03.914Z,17.48
2024-03-06T15:27:31.689Z,17.38
2024-03-06T15:29:59.361Z,17.36
2024-03-06T15:31:27.773Z,17.31
2024-03-06T15:33:55.655Z,17.25
2024-03-06T15:35:23.951Z,17.21
2024-03-06T15:36:55.261Z,17.12
2024-03-06T15:38:22.048Z,17.16
2024-03-06T15:40:49.137Z,17.15
2024-03-06T15:42:47.825Z,17.11
2024-03-06T15:45:15.847Z,17.23
2024-03-06T15:47:42.950Z,17.22
2024-03-06T15:49:41.389Z,17.12
2024-03-06T15:51:10.440Z,17.14
2024-03-06T15:52:39.420Z,17.18
2024-03-06T15:54:10.583Z,17.11
2024-03-06T15:56:31.873Z,17.15
2024-03-06T15:58:01.512Z,17.14
2024-03-06T15:59:36.175Z,17.04
2024-03-06T16:01:06.132Z,17.01
2024-03-06T16:02:34.007Z,16.93
2024-03-06T16:04:32.267Z,16.83
2024-03-06T16:06:11.160Z,16.83
2024-03-06T16:08:32.274Z,16.85
2024-03-06T16:10:01.920Z,16.78
2024-03-06T16:14:56.518Z,16.63
2024-03-06T16:16:56.589Z,16.61
2024-03-06T16:18:54.358Z,16.64
2024-03-06T16:23:38.825Z,16.63
2024-03-06T16:25:08.886Z,16.60
2024-03-06T16:26:38.908Z,16.66
2024-03-06T16:28:07.997Z,16.70
2024-03-06T16:29:37.008Z,16.75
2024-03-06T16:31:06.165Z,16.67
2024-03-06T16:33:33.494Z,16.57
2024-03-06T16:36:00.599Z,16.52
2024-03-06T16:37:29.493Z,16.52
2024-03-06T16:38:58.524Z,16.60
2024-03-06T16:42:52.808Z,16.49
2024-03-06T16:44:51.104Z,16.45
2024-03-06T16:46:20.943Z,16.39
2024-03-06T16:47:50.405Z,16.34
2024-03-06T16:49:19.617Z,16.31
2024-03-06T16:51:17.406Z,16.35
2024-03-06T16:54:42.575Z,16.31
2024-03-06T16:57:09.621Z,16.28
2024-03-06T16:59:08.071Z,16.30
2024-03-06T17:01:34.721Z,16.27
2024-03-06T17:03:03.731Z,16.27
2024-03-06T17:04:32.667Z,16.24
2024-03-06T17:07:57.717Z,16.28
2024-03-06T17:09:27.055Z,16.31
2024-03-06T17:10:55.721Z,16.33
2024-03-06T17:15:47.713Z,16.15
2024-03-06T17:17:16.700Z,16.20
2024-03-06T17:21:12.217Z,16.09
2024-03-06T17:22:41.252Z,16.08
2024-03-06T17:24:10.932Z,16.02
2024-03-06T17:26:37.452Z,15.87
2024-03-06T17:34:25.398Z,15.82
2024-03-06T17:37:50.775Z,15.80
2024-03-06T17:39:19.403Z,15.83
2024-03-06T17:44:41.232Z,15.71
2024-03-06T17:50:32.192Z,15.54
2024-03-06T17:54:26.351Z,15.51
2024-03-06T17:57:51.876Z,15.53
2024-03-06T17:59:20.977Z,15.59
2024-03-06T18:02:17.568Z,15.57
2024-03-06T18:03:47.285Z,15.60
2024-03-06T18:05:15.695Z,15.57
2024-03-06T18:06:44.933Z,15.54
2024-03-06T18:08:43.055Z,15.47
2024-03-06T18:12:08.519Z,15.31
2024-03-06T18:13:37.543Z,15.34
2024-03-06T18:18:01.465Z,15.17
2024-03-06T18:19:30.758Z,15.20
2024-03-06T18:22:17.916Z,15.14
2024-03-06T18:23:47.132Z,15.14
2024-03-06T18:26:43.195Z,15.13
2024-03-06T18:31:06.897Z,15.07
2024-03-06T18:33:34.158Z,15.06
2024-03-06T18:35:03.164Z,15.11
2024-03-06T18:37:01.838Z,15.07
2024-03-06T18:39:00.129Z,15.06
2024-03-06T18:43:14.646Z,15.06
2024-03-06T18:44:44.048Z,15.14
2024-03-06T18:48:10.399Z,15.11
2024-03-06T18:52:34.410Z,14.96
2024-03-06T18:55:51.070Z,14.94
2024-03-06T18:57:21.161Z,14.94
2024-03-06T19:01:45.246Z,14.89
2024-03-06T19:04:12.735Z,14.84
2024-03-06T19:06:11.137Z,14.83
2024-03-06T19:09:08.458Z,14.78
2024-03-06T19:13:32.669Z,14.72
2024-03-06T19:15:02.261Z,14.68
2024-03-06T19:17:00.412Z,14.64
2024-03-06T19:18:59.128Z,14.61
2024-03-06T19:20:27.554Z,14.61
2024-03-06T19:22:25.818Z,14.57
2024-03-06T19:24:24.803Z,14.55
2024-03-06T19:25:53.540Z,14.57
2024-03-06T19:27:23.234Z,14.60
2024-03-06T19:30:19.371Z,14.55
2024-03-06T19:33:15.468Z,14.51
2024-03-06T19:35:42.512Z,14.51
2024-03-06T19:38:00.723Z,14.54
2024-03-06T19:41:26.170Z,14.52
2024-03-06T19:44:52.634Z,14.42
2024-03-06T19:46:21.562Z,14.45
2024-03-06T19:50:45.510Z,14.39
2024-03-06T19:53:13.125Z,14.36
2024-03-06T19:56:09.804Z,14.33
2024-03-06T19:58:07.840Z,14.29
2024-03-06T19:59:37.197Z,14.35
2024-03-06T20:01:06.452Z,14.39
2024-03-06T20:03:34.555Z,14.36
2024-03-06T20:05:33.195Z,14.36
2024-03-06T20:07:02.236Z,14.45
2024-03-06T20:08:31.299Z,14.50
2024-03-06T20:10:20.203Z,14.43
2024-03-06T20:14:16.361Z,14.27
2024-03-06T20:16:15.394Z,14.29
2024-03-06T20:18:12.807Z,14.28
2024-03-06T20:20:10.964Z,14.29
2024-03-06T20:22:09.177Z,14.29
2024-03-06T20:26:34.427Z,14.24
2024-03-06T20:29:52.621Z,14.21
2024-03-06T20:31:50.646Z,14.21
2024-03-06T20:33:19.728Z,14.21
2024-03-06T20:35:26.945Z,14.15
2024-03-06T20:36:47.412Z,14.15
2024-03-06T20:40:29.603Z,14.15
2024-03-06T20:41:58.358Z,14.14
2024-03-06T20:44:54.739Z,14.03
2024-03-06T20:46:23.772Z,14.07
2024-03-06T20:51:08.887Z,14.00
2024-03-06T20:53:57.304Z,13.96
2024-03-06T20:55:57.659Z,13.95
2024-03-06T20:57:26.325Z,13.99
2024-03-06T20:58:56.378Z,14.00
2024-03-06T21:09:10.721Z,13.62
2024-03-06T21:10:40.171Z,13.64
2024-03-06T21:13:35.946Z,13.71
2024-03-06T21:15:33.975Z,13.85
2024-03-06T21:17:03.053Z,13.89
2024-03-06T21:18:32.830Z,13.81
2024-03-06T21:20:02.385Z,13.70
2024-03-06T21:21:30.085Z,13.66
2024-03-06T21:23:28.310Z,13.59
2024-03-06T21:24:57.175Z,13.59
2024-03-06T21:27:24.300Z,13.59
2024-03-06T21:33:15.040Z,13.49
2024-03-06T21:35:13.082Z,13.48
2024-03-06T21:37:11.201Z,13.48
2024-03-06T21:40:08.097Z,13.42
2024-03-06T21:43:06.030Z,13.45
2024-03-06T21:45:03.443Z,13.42
2024-03-06T21:47:30.892Z,13.36
2024-03-06T21:49:58.117Z,13.38
2024-03-06T21:51:56.129Z,13.44
2024-03-06T21:54:23.270Z,13.46
2024-03-06T22:00:43.062Z,13.48
2024-03-06T22:08:01.433Z,13.46
2024-03-06T22:10:00.558Z,13.51
2024-03-06T22:11:29.580Z,13.54
2024-03-06T22:13:27.634Z,13.63
2024-03-06T22:15:54.853Z,13.64
2024-03-06T22:17:23.938Z,13.64
2024-03-06T22:22:47.827Z,13.78
2024-03-06T22:24:16.795Z,13.82
2024-03-06T22:28:11.112Z,13.84
2024-03-06T22:30:38.260Z,13.87
2024-03-06T22:32:36.709Z,13.85
2024-03-06T22:34:05.590Z,13.82
2024-03-06T22:36:06.623Z,13.79
2024-03-06T22:37:36.139Z,13.78
2024-03-06T22:41:21.696Z,13.73
2024-03-06T22:42:51.536Z,13.70
2024-03-06T22:44:21.654Z,13.73
2024-03-06T22:45:51.777Z,13.79
2024-03-06T22:48:22.511Z,13.81
2024-03-06T22:49:51.789Z,13.91
2024-03-06T22:52:21.435Z,13.85
2024-03-06T22:54:19.834Z,13.77
2024-03-06T22:56:18.149Z,13.77
2024-03-06T22:57:49.277Z,13.85
2024-03-06T23:00:47.221Z,13.84
2024-03-06T23:02:21.471Z,13.82
2024-03-06T23:03:46.327Z,13.87
2024-03-06T23:05:17.576Z,13.89
2024-03-06T23:06:46.768Z,13.91
2024-03-06T23:08:50.832Z,13.95
2024-03-06T23:14:23.065Z,13.77
2024-03-06T23:16:53.187Z,13.77
2024-03-06T23:19:50.973Z,13.84
2024-03-06T23:22:46.793Z,13.84
2024-03-06T23:24:17.241Z,13.96
2024-03-06T23:25:47.253Z,13.95
2024-03-06T23:28:46.582Z,13.84
2024-03-06T23:30:16.465Z,13.82
2024-03-06T23:32:15.812Z,13.82
2024-03-06T23:33:44.278Z,13.79
2024-03-06T23:36:46.560Z,13.73
2024-03-06T23:39:48.419Z,13.66
2024-03-06T23:41:48.925Z,13.59
2024-03-06T23:43:37.541Z,13.64
2024-03-06T23:47:49.125Z,13.60
2024-03-06T23:49:47.107Z,13.60
2024-03-06T23:52:16.568Z,13.55
2024-03-06T23:58:02.113Z,13.45
